createdAt,value
2022-12-18T00:01:27.467Z,26.42
2022-12-18T00:03:55.887Z,31.30
2022-12-18T00:06:25.385Z,24.17
2022-12-18T00:08:52.332Z,28.90
2022-12-18T00:11:21.752Z,26.17
2022-12-18T00:13:49.462Z,28.85
2022-12-18T00:16:21.390Z,27.13
2022-12-18T00:18:49.490Z,27.15
2022-12-18T00:21:18.859Z,26.15
2022-12-18T00:23:46.549Z,27.80
2022-12-18T00:26:34.102Z,34.65
2022-12-18T00:29:11.839Z,25.60
2022-12-18T00:31:39.382Z,24.88
2022-12-18T00:34:06.991Z,26.17
2022-12-18T00:36:35.516Z,22.90
2022-12-18T00:39:04.560Z,27.70
2022-12-18T00:41:50.277Z,27.00
2022-12-18T00:44:18.832Z,27.02
2022-12-18T00:46:46.486Z,24.73
2022-12-18T00:49:13.439Z,26.48
2022-12-18T00:51:40.391Z,22.23
2022-12-18T00:54:07.147Z,27.45
2022-12-18T00:56:37.356Z,22.92
2022-12-18T00:59:06.173Z,26.48
2022-12-18T01:01:33.699Z,26.65
2022-12-18T01:04:02.455Z,24.98
2022-12-18T01:06:29.288Z,28.92
2022-12-18T01:08:56.610Z,25.20
2022-12-18T01:11:23.658Z,23.98
2022-12-18T01:13:52.113Z,23.90
2022-12-18T01:16:19.260Z,28.20
2022-12-18T01:18:46.448Z,26.98
2022-12-18T01:21:16.905Z,26.27
2022-12-18T01:23:43.734Z,26.83
2022-12-18T01:26:14.772Z,24.20
2022-12-18T01:28:41.972Z,28.85
2022-12-18T01:31:21.091Z,22.73
2022-12-18T01:33:47.848Z,28.92
2022-12-18T01:36:32.765Z,26.92
2022-12-18T01:39:12.187Z,24.63
2022-12-18T01:42:01.149Z,22.60
2022-12-18T01:45:06.568Z,26.08
2022-12-18T01:47:38.922Z,23.63
2022-12-18T01:52:38.092Z,19.05
2022-12-18T01:55:09.059Z,26.45
2022-12-18T01:57:36.444Z,26.00
2022-12-18T02:00:09.700Z,25.80
2022-12-18T02:02:43.890Z,24.38
2022-12-18T02:05:13.500Z,23.10
2022-12-18T02:08:03.350Z,22.70
2022-12-18T02:10:45.488Z,20.85
2022-12-18T02:13:37.547Z,23.42
2022-12-18T02:16:30.596Z,23.38
2022-12-18T02:19:01.970Z,29.45
2022-12-18T02:21:28.608Z,26.37
2022-12-18T02:24:15.024Z,25.55
2022-12-18T02:26:49.958Z,28.80
2022-12-18T02:29:24.981Z,27.98
2022-12-18T02:31:56.227Z,27.85
2022-12-18T02:34:27.338Z,24.95
2022-12-18T02:36:57.540Z,25.13
2022-12-18T02:39:27.749Z,25.35
2022-12-18T02:42:08.527Z,23.42
2022-12-18T02:44:46.839Z,23.10
2022-12-18T02:47:20.826Z,25.98
2022-12-18T02:50:11.158Z,25.98
2022-12-18T02:52:46.924Z,26.02
2022-12-18T02:55:47.598Z,26.63
2022-12-18T02:58:20.120Z,24.25
2022-12-18T03:01:05.331Z,25.40
2022-12-18T03:03:41.770Z,23.13
2022-12-18T03:06:24.605Z,21.70
2022-12-18T03:08:59.251Z,24.23
2022-12-18T03:11:50.881Z,20.60
2022-12-18T03:14:20.455Z,19.85
2022-12-18T03:16:51.837Z,17.67
2022-12-18T03:19:24.591Z,22.13
2022-12-18T03:21:58.321Z,16.60
2022-12-18T03:24:29.200Z,24.15
2022-12-18T03:27:01.953Z,18.48
2022-12-18T03:29:39.271Z,24.60
2022-12-18T03:32:11.873Z,18.48
2022-12-18T03:34:41.848Z,17.35
2022-12-18T03:37:11.116Z,18.88
2022-12-18T03:39:38.467Z,18.35
2022-12-18T03:42:37.833Z,23.55
2022-12-18T03:45:14.570Z,19.27
2022-12-18T03:47:58.938Z,22.17
2022-12-18T03:50:50.400Z,20.83
2022-12-18T03:53:40.730Z,20.17
2022-12-18T03:56:09.463Z,20.83
2022-12-18T03:58:41.593Z,20.92
2022-12-18T04:01:27.300Z,20.45
2022-12-18T04:03:54.889Z,24.58
2022-12-18T04:06:22.330Z,21.70
2022-12-18T04:08:49.257Z,20.45
2022-12-18T04:11:20.515Z,22.52
2022-12-18T04:13:48.088Z,19.85
2022-12-18T04:16:20.462Z,18.30
2022-12-18T04:18:51.032Z,22.20
2022-12-18T04:21:20.292Z,17.73
2022-12-18T04:23:48.446Z,22.25
2022-12-18T04:26:15.206Z,23.02
2022-12-18T04:28:58.369Z,18.75
2022-12-18T04:31:25.112Z,20.63
2022-12-18T04:33:52.534Z,20.80
2022-12-18T04:36:19.358Z,21.42
2022-12-18T04:38:47.436Z,22.60
2022-12-18T04:41:16.481Z,23.50
2022-12-18T04:43:46.170Z,36.28
2022-12-18T04:46:12.939Z,18.88
2022-12-18T04:48:39.726Z,21.02
2022-12-18T04:51:07.183Z,24.23
2022-12-18T04:53:34.285Z,21.38
2022-12-18T04:56:10.707Z,17.08
2022-12-18T04:58:38.678Z,23.10
2022-12-18T05:01:05.964Z,19.98
2022-12-18T05:03:33.032Z,25.20
2022-12-18T05:06:00.133Z,20.35
2022-12-18T05:08:27.025Z,22.67
2022-12-18T05:11:05.211Z,23.33
2022-12-18T05:13:32.815Z,23.55
2022-12-18T05:15:59.681Z,22.50
2022-12-18T05:18:26.868Z,24.33
2022-12-18T05:20:54.741Z,25.67
2022-12-18T05:23:23.020Z,29.40
2022-12-18T05:25:58.012Z,29.75
2022-12-18T05:28:26.552Z,43.67
2022-12-18T05:30:55.414Z,57.78
2022-12-18T05:33:23.430Z,27.65
2022-12-18T05:35:59.338Z,34.25
2022-12-18T05:38:30.419Z,40.33
2022-12-18T05:40:58.125Z,30.05
2022-12-18T05:43:26.438Z,36.78
2022-12-18T05:45:53.793Z,29.50
2022-12-18T05:48:21.561Z,27.23
2022-12-18T05:50:49.502Z,28.92
2022-12-18T05:53:18.597Z,33.15
2022-12-18T05:55:45.490Z,36.50
2022-12-18T05:58:13.440Z,34.50
2022-12-18T06:00:42.781Z,27.10
2022-12-18T06:03:11.198Z,36.60
2022-12-18T06:05:40.077Z,32.55
2022-12-18T06:08:06.960Z,35.80
2022-12-18T06:10:34.172Z,29.58
2022-12-18T06:13:01.588Z,38.60
2022-12-18T06:15:28.310Z,30.67
2022-12-18T06:17:55.158Z,28.75
2022-12-18T06:20:21.920Z,29.30
2022-12-18T06:22:48.758Z,29.40
2022-12-18T06:25:16.791Z,30.08
2022-12-18T06:27:43.595Z,28.85
2022-12-18T06:30:11.378Z,34.35
2022-12-18T06:32:38.167Z,29.67
2022-12-18T06:35:05.279Z,33.92
2022-12-18T06:37:32.535Z,32.08
2022-12-18T06:39:59.364Z,32.10
2022-12-18T06:42:26.309Z,33.92
2022-12-18T06:44:52.988Z,35.78
2022-12-18T06:47:19.987Z,33.17
2022-12-18T06:49:46.744Z,41.80
2022-12-18T06:52:13.434Z,52.65
2022-12-18T06:54:40.165Z,46.10
2022-12-18T06:57:06.822Z,34.03
2022-12-18T06:59:33.513Z,37.72
2022-12-18T07:02:00.260Z,30.30
2022-12-18T07:04:31.147Z,32.05
2022-12-18T07:06:58.322Z,37.28
2022-12-18T07:09:25.330Z,32.78
2022-12-18T07:11:52.895Z,26.27
2022-12-18T07:14:19.579Z,30.48
2022-12-18T07:16:46.369Z,37.58
2022-12-18T07:19:13.071Z,44.00
2022-12-18T07:21:39.789Z,41.33
2022-12-18T07:24:07.164Z,30.52
2022-12-18T07:26:33.838Z,34.08
2022-12-18T07:29:00.611Z,37.63
2022-12-18T07:31:28.065Z,63.80
2022-12-18T07:33:55.300Z,44.17
2022-12-18T07:36:25.496Z,39.88
2022-12-18T07:38:53.694Z,29.33
2022-12-18T07:41:20.464Z,29.73
2022-12-18T07:43:47.942Z,28.58
2022-12-18T07:46:15.552Z,27.92
2022-12-18T07:48:43.412Z,31.55
2022-12-18T07:51:13.421Z,27.52
2022-12-18T07:53:41.143Z,30.90
2022-12-18T07:56:28.297Z,27.15
2022-12-18T07:58:56.340Z,27.15
2022-12-18T08:01:23.124Z,33.90
2022-12-18T08:03:52.114Z,32.33
2022-12-18T08:06:19.589Z,38.25
2022-12-18T08:08:51.180Z,40.80
2022-12-18T08:11:17.834Z,32.45
2022-12-18T08:13:44.512Z,30.85
2022-12-18T08:16:11.238Z,34.03
2022-12-18T08:18:38.964Z,36.38
2022-12-18T08:21:13.946Z,30.45
2022-12-18T08:23:43.285Z,33.33
2022-12-18T08:26:14.447Z,34.35
2022-12-18T08:28:41.545Z,28.63
2022-12-18T08:31:08.949Z,32.10
2022-12-18T08:33:38.299Z,35.95
2022-12-18T08:36:06.563Z,39.70
2022-12-18T08:38:33.803Z,28.85
2022-12-18T08:41:06.330Z,36.67
2022-12-18T08:43:51.969Z,27.80
2022-12-18T08:46:20.284Z,33.58
2022-12-18T08:48:47.948Z,30.52
2022-12-18T08:51:17.151Z,22.75
2022-12-18T08:53:44.205Z,33.28
2022-12-18T08:56:11.823Z,28.20
2022-12-18T08:58:38.506Z,37.22
2022-12-18T09:01:07.658Z,29.50
2022-12-18T09:03:34.554Z,33.67
2022-12-18T09:06:01.387Z,28.67
2022-12-18T09:08:28.415Z,36.45
2022-12-18T09:10:56.066Z,25.48
2022-12-18T09:13:23.882Z,24.70
2022-12-18T09:15:55.271Z,55.20
2022-12-18T09:18:23.316Z,25.10
2022-12-18T09:20:51.205Z,30.88
2022-12-18T09:23:17.955Z,35.15
2022-12-18T09:25:44.649Z,27.92
2022-12-18T09:28:16.183Z,34.85
2022-12-18T09:30:48.380Z,33.78
2022-12-18T09:33:15.408Z,29.10
2022-12-18T09:35:44.023Z,28.05
2022-12-18T09:38:17.100Z,25.52
2022-12-18T09:40:46.274Z,24.48
2022-12-18T09:43:21.097Z,22.27
2022-12-18T09:45:56.186Z,22.23
2022-12-18T09:48:28.156Z,21.08
2022-12-18T09:51:01.641Z,25.35
2022-12-18T09:53:33.940Z,21.80
2022-12-18T09:56:02.876Z,19.30
2022-12-18T09:58:32.040Z,26.25
2022-12-18T10:00:59.017Z,21.90
2022-12-18T10:03:25.885Z,19.45
2022-12-18T10:06:16.379Z,23.00
2022-12-18T10:08:45.814Z,22.70
2022-12-18T10:11:48.386Z,56.90
2022-12-18T10:14:54.048Z,38.13
2022-12-18T10:17:39.513Z,33.92
2022-12-18T10:20:19.870Z,33.22
2022-12-18T10:23:12.745Z,24.13
2022-12-18T10:25:51.768Z,21.70
2022-12-18T10:28:20.276Z,17.75
2022-12-18T10:30:47.028Z,17.55
2022-12-18T10:33:28.634Z,24.73
2022-12-18T10:35:55.780Z,30.75
2022-12-18T10:38:31.438Z,28.90
2022-12-18T10:40:58.094Z,30.75
2022-12-18T10:43:28.974Z,24.38
2022-12-18T10:46:01.818Z,23.02
2022-12-18T10:48:29.574Z,17.80
2022-12-18T10:51:13.628Z,20.77
2022-12-18T10:53:45.959Z,20.00
2022-12-18T10:56:13.282Z,18.90
2022-12-18T10:58:41.098Z,20.40
2022-12-18T11:01:15.232Z,19.67
2022-12-18T11:03:47.714Z,19.95
2022-12-18T11:09:19.607Z,23.85
2022-12-18T11:11:54.192Z,16.83
2022-12-18T11:14:31.620Z,16.98
2022-12-18T11:20:00.782Z,16.10
2022-12-18T11:22:39.187Z,18.85
2022-12-18T11:25:33.032Z,18.48
2022-12-18T11:28:02.480Z,14.95
2022-12-18T11:30:32.722Z,17.02
2022-12-18T11:33:14.152Z,23.02
2022-12-18T11:35:56.836Z,22.75
2022-12-18T11:38:29.754Z,21.92
2022-12-18T11:41:13.482Z,21.88
2022-12-18T11:43:50.087Z,16.90
2022-12-18T11:46:27.127Z,15.88
2022-12-18T11:49:16.772Z,16.38
2022-12-18T11:51:51.284Z,21.27
2022-12-18T11:54:18.600Z,15.80
2022-12-18T11:57:05.428Z,15.65
2022-12-18T11:59:46.194Z,18.17
2022-12-18T12:02:40.165Z,19.02
2022-12-18T12:05:39.669Z,16.13
2022-12-18T12:08:21.777Z,17.98
2022-12-18T12:11:02.010Z,23.00
2022-12-18T12:13:37.307Z,18.42
2022-12-18T12:16:25.864Z,19.67
2022-12-18T12:19:14.104Z,19.15
2022-12-18T12:21:47.771Z,16.83
2022-12-18T12:24:45.143Z,24.15
2022-12-18T12:27:29.818Z,25.15
2022-12-18T12:30:17.576Z,17.85
2022-12-18T12:33:17.993Z,20.10
2022-12-18T12:35:56.247Z,16.15
2022-12-18T12:38:29.080Z,14.63
2022-12-18T12:41:31.827Z,18.17
2022-12-18T12:44:02.712Z,12.70
2022-12-18T12:46:34.865Z,18.10
2022-12-18T12:49:05.196Z,14.48
2022-12-18T12:51:41.318Z,15.38
2022-12-18T12:54:20.608Z,15.25
2022-12-18T12:57:14.931Z,16.50
2022-12-18T12:59:51.603Z,17.92
2022-12-18T13:02:25.974Z,16.92
2022-12-18T13:05:23.236Z,14.13
2022-12-18T13:07:55.863Z,11.23
2022-12-18T13:10:27.971Z,14.73
2022-12-18T13:13:17.344Z,12.20
2022-12-18T13:16:08.579Z,11.65
2022-12-18T13:18:36.302Z,16.17
2022-12-18T13:21:05.001Z,12.52
2022-12-18T13:23:38.748Z,13.95
2022-12-18T13:26:14.126Z,13.02
2022-12-18T13:28:48.392Z,13.23
2022-12-18T13:31:36.151Z,15.23
2022-12-18T13:34:27.433Z,15.98
2022-12-18T13:37:18.233Z,18.30
2022-12-18T13:39:45.069Z,18.50
2022-12-18T13:42:32.694Z,15.05
2022-12-18T13:44:59.770Z,15.98
2022-12-18T13:47:38.882Z,16.00
2022-12-18T13:50:23.809Z,14.68
2022-12-18T13:52:51.842Z,26.90
2022-12-18T13:55:21.603Z,25.38
2022-12-18T13:57:48.318Z,18.58
2022-12-18T14:00:30.162Z,15.48
2022-12-18T14:02:58.597Z,15.32
2022-12-18T14:05:27.440Z,15.50
2022-12-18T14:07:55.500Z,15.18
2022-12-18T14:13:16.184Z,18.45
2022-12-18T14:15:47.691Z,19.00
2022-12-18T14:18:29.905Z,17.60
2022-12-18T14:21:00.405Z,15.18
2022-12-18T14:23:28.198Z,20.42
2022-12-18T14:25:54.884Z,16.77
2022-12-18T14:28:23.000Z,16.90
2022-12-18T14:30:50.878Z,20.10
2022-12-18T14:33:19.656Z,20.92
2022-12-18T14:35:57.003Z,19.02
2022-12-18T14:38:29.522Z,27.10
2022-12-18T14:43:23.633Z,150.38
2022-12-18T14:45:50.776Z,61.97
2022-12-18T14:48:26.080Z,26.75
2022-12-18T14:51:05.847Z,24.67
2022-12-18T14:53:53.920Z,24.67
2022-12-18T14:56:23.184Z,23.38
2022-12-18T14:58:52.625Z,20.33
2022-12-18T15:01:21.745Z,22.83
2022-12-18T15:03:48.575Z,20.55
2022-12-18T15:06:40.930Z,23.95
2022-12-18T15:09:24.621Z,22.73
2022-12-18T15:12:00.471Z,26.33
2022-12-18T15:14:41.359Z,23.60
2022-12-18T15:17:21.225Z,21.73
2022-12-18T15:19:51.868Z,17.10
2022-12-18T15:22:26.844Z,27.35
2022-12-18T15:24:54.844Z,24.08
2022-12-18T15:27:31.235Z,23.30
2022-12-18T15:30:10.049Z,19.23
2022-12-18T15:32:38.598Z,20.55
2022-12-18T15:35:19.019Z,25.05
2022-12-18T15:37:46.163Z,25.42
2022-12-18T15:40:18.033Z,26.73
2022-12-18T15:43:03.444Z,27.48
2022-12-18T15:45:30.164Z,33.40
2022-12-18T15:47:57.252Z,38.35
2022-12-18T15:50:24.526Z,34.85
2022-12-18T15:52:54.493Z,23.70
2022-12-18T15:55:42.311Z,24.10
2022-12-18T15:58:10.661Z,31.35
2022-12-18T16:00:40.137Z,23.95
2022-12-18T16:03:07.686Z,22.50
2022-12-18T16:05:34.572Z,24.50
2022-12-18T16:08:01.255Z,31.48
2022-12-18T16:10:28.132Z,30.25
2022-12-18T16:12:55.095Z,27.48
2022-12-18T16:15:24.814Z,34.90
2022-12-18T16:17:52.796Z,49.80
2022-12-18T16:20:22.380Z,39.53
2022-12-18T16:22:50.259Z,43.55
2022-12-18T16:25:25.320Z,36.00
2022-12-18T16:27:55.041Z,27.60
2022-12-18T16:30:24.581Z,36.80
2022-12-18T16:32:52.781Z,36.83
2022-12-18T16:35:19.546Z,32.88
2022-12-18T16:37:46.334Z,32.58
2022-12-18T16:40:15.559Z,25.48
2022-12-18T16:42:43.847Z,25.35
2022-12-18T16:45:13.513Z,27.90
2022-12-18T16:47:40.615Z,29.55
2022-12-18T16:50:08.337Z,26.60
2022-12-18T16:52:35.500Z,34.38
2022-12-18T16:55:02.277Z,25.77
2022-12-18T16:57:29.016Z,24.33
2022-12-18T16:59:58.741Z,20.38
2022-12-18T17:02:30.100Z,22.33
2022-12-18T17:04:58.286Z,35.42
2022-12-18T17:07:26.311Z,28.38
2022-12-18T17:09:54.092Z,26.77
2022-12-18T17:12:21.574Z,21.27
2022-12-18T17:14:48.347Z,26.98
2022-12-18T17:17:23.819Z,26.85
2022-12-18T17:19:51.846Z,23.52
2022-12-18T17:22:18.688Z,24.60
2022-12-18T17:24:46.864Z,34.67
2022-12-18T17:27:13.637Z,31.02
2022-12-18T17:29:46.828Z,23.58
2022-12-18T17:32:14.361Z,23.95
2022-12-18T17:34:41.136Z,26.52
2022-12-18T17:37:08.074Z,30.70
2022-12-18T17:39:34.764Z,31.05
2022-12-18T17:42:01.483Z,62.88
2022-12-18T17:44:28.203Z,33.72
2022-12-18T17:46:55.049Z,27.65
2022-12-18T17:49:21.950Z,28.45
2022-12-18T17:51:48.964Z,30.20
2022-12-18T17:54:15.678Z,28.42
2022-12-18T17:56:42.386Z,41.40
2022-12-18T17:59:09.595Z,27.92
2022-12-18T18:01:42.411Z,33.70
2022-12-18T18:04:11.264Z,29.80
2022-12-18T18:06:38.832Z,28.90
2022-12-18T18:09:06.194Z,29.75
2022-12-18T18:11:53.905Z,34.65
2022-12-18T18:14:22.419Z,35.17
2022-12-18T18:16:51.932Z,34.30
2022-12-18T18:19:24.122Z,30.80
2022-12-18T18:24:23.327Z,34.67
2022-12-18T18:26:50.169Z,32.75
2022-12-18T18:29:22.208Z,27.50
2022-12-18T18:31:49.095Z,29.05
2022-12-18T18:34:20.232Z,28.35
2022-12-18T18:36:47.084Z,28.98
2022-12-18T18:39:15.178Z,35.28
2022-12-18T18:41:43.840Z,73.03
2022-12-18T18:44:20.416Z,72.97
2022-12-18T18:46:49.555Z,83.30
2022-12-18T18:49:16.288Z,62.83
2022-12-18T18:51:43.027Z,47.83
2022-12-18T18:54:10.244Z,91.00
2022-12-18T18:57:03.877Z,137.82
2022-12-18T18:59:29.162Z,148.07
2022-12-18T19:02:00.658Z,86.00
2022-12-18T19:04:31.787Z,57.85
2022-12-18T19:06:58.502Z,47.63
2022-12-18T19:09:26.316Z,45.85
2022-12-18T19:12:12.302Z,40.22
2022-12-18T19:14:39.103Z,52.88
2022-12-18T19:17:05.789Z,48.33
2022-12-18T19:19:32.948Z,36.97
2022-12-18T19:21:59.746Z,36.38
2022-12-18T19:24:26.439Z,34.35
2022-12-18T19:26:54.868Z,32.65
2022-12-18T19:29:25.030Z,33.53
2022-12-18T19:31:51.844Z,39.97
2022-12-18T19:34:18.554Z,44.67
2022-12-18T19:36:45.290Z,48.72
2022-12-18T19:39:17.820Z,57.40
2022-12-18T19:41:46.439Z,36.78
2022-12-18T19:44:15.275Z,31.75
2022-12-18T19:46:42.902Z,42.75
2022-12-18T19:49:18.183Z,97.45
2022-12-18T19:51:45.331Z,42.55
2022-12-18T19:54:16.723Z,37.58
2022-12-18T19:56:45.049Z,39.92
2022-12-18T19:59:11.865Z,34.47
2022-12-18T20:01:38.623Z,36.38
2022-12-18T20:04:05.882Z,35.90
2022-12-18T20:06:36.865Z,52.83
2022-12-18T20:09:06.176Z,52.55
2022-12-18T20:11:35.335Z,39.72
2022-12-18T20:14:10.412Z,33.63
2022-12-18T20:16:37.357Z,38.53
2022-12-18T20:19:05.756Z,39.72
2022-12-18T20:21:32.676Z,38.00
2022-12-18T20:24:00.167Z,35.97
2022-12-18T20:26:27.202Z,44.97
2022-12-18T20:28:55.431Z,39.53
2022-12-18T20:31:23.191Z,41.58
2022-12-18T20:33:51.179Z,40.00
2022-12-18T20:36:25.785Z,38.35
2022-12-18T20:38:55.771Z,41.13
2022-12-18T20:41:24.855Z,40.50
2022-12-18T20:43:51.758Z,42.33
2022-12-18T20:46:19.227Z,41.35
2022-12-18T20:48:47.623Z,41.60
2022-12-18T20:51:18.338Z,42.95
2022-12-18T20:53:46.289Z,44.38
2022-12-18T20:56:21.869Z,45.90
2022-12-18T20:58:54.930Z,47.88
2022-12-18T21:01:22.733Z,46.17
2022-12-18T21:03:49.727Z,45.13
2022-12-18T21:06:18.123Z,73.63
2022-12-18T21:08:45.155Z,88.47
2022-12-18T21:11:56.987Z,51.53
2022-12-18T21:14:27.741Z,39.53
2022-12-18T21:16:55.398Z,39.15
2022-12-18T21:19:25.470Z,41.75
2022-12-18T21:21:52.797Z,47.05
2022-12-18T21:24:20.310Z,47.53
2022-12-18T21:26:48.539Z,46.55
2022-12-18T21:29:17.787Z,51.03
2022-12-18T21:31:45.396Z,47.25
2022-12-18T21:34:21.187Z,52.30
2022-12-18T21:36:49.418Z,54.85
2022-12-18T21:39:16.437Z,49.38
2022-12-18T21:42:01.902Z,55.03
2022-12-18T21:44:29.086Z,47.25
2022-12-18T21:47:00.584Z,56.15
2022-12-18T21:49:33.453Z,42.63
2022-12-18T21:52:00.895Z,41.20
2022-12-18T21:54:28.844Z,39.55
2022-12-18T21:56:58.042Z,41.45
2022-12-18T21:59:30.809Z,41.50
2022-12-18T22:02:01.093Z,43.00
2022-12-18T22:04:28.389Z,46.83
2022-12-18T22:06:56.006Z,47.10
2022-12-18T22:09:24.703Z,41.10
2022-12-18T22:11:52.307Z,55.40
2022-12-18T22:14:19.641Z,45.65
2022-12-18T22:16:47.062Z,39.22
2022-12-18T22:19:15.632Z,45.35
2022-12-18T22:21:45.806Z,42.85
2022-12-18T22:24:21.387Z,50.88
2022-12-18T22:26:49.618Z,34.05
2022-12-18T22:29:57.015Z,35.50
2022-12-18T22:32:30.944Z,46.28
2022-12-18T22:35:07.936Z,45.60
2022-12-18T22:37:37.252Z,37.15
2022-12-18T22:40:05.973Z,45.25
2022-12-18T22:42:34.043Z,29.45
2022-12-18T22:45:00.798Z,38.78
2022-12-18T22:47:30.110Z,35.13
2022-12-18T22:49:58.056Z,26.75
2022-12-18T22:52:25.355Z,28.15
2022-12-18T22:54:53.594Z,25.55
2022-12-18T22:57:21.754Z,21.23
2022-12-18T22:59:49.400Z,25.38
2022-12-18T23:02:17.728Z,19.25
2022-12-18T23:04:45.039Z,21.70
2022-12-18T23:07:11.758Z,19.55
2022-12-18T23:09:39.848Z,18.17
2022-12-18T23:12:07.336Z,17.60
2022-12-18T23:14:34.296Z,21.25
2022-12-18T23:17:01.002Z,16.83
2022-12-18T23:19:27.823Z,15.85
2022-12-18T23:21:57.772Z,18.42
2022-12-18T23:24:26.111Z,14.60
2022-12-18T23:26:52.830Z,19.58
2022-12-18T23:29:19.671Z,17.67
2022-12-18T23:31:46.794Z,17.25
2022-12-18T23:34:14.740Z,18.92
2022-12-18T23:36:45.832Z,16.70
2022-12-18T23:39:28.419Z,18.73
2022-12-18T23:42:00.457Z,15.13
2022-12-18T23:44:27.804Z,16.63
2022-12-18T23:46:54.984Z,17.92
2022-12-18T23:49:21.917Z,18.42
2022-12-18T23:51:49.216Z,16.25
2022-12-18T23:54:15.973Z,16.02
2022-12-18T23:56:42.784Z,17.75
2022-12-18T23:59:09.790Z,18.45
